createdAt,value
2017-05-09T00:00:00.969Z,7.87
2017-05-09T00:02:29.271Z,6.12
2017-05-09T00:04:57.565Z,5.47
2017-05-09T00:07:26.182Z,6.48
2017-05-09T00:09:54.489Z,6.62
2017-05-09T00:12:22.793Z,4.67
2017-05-09T00:14:51.097Z,4.75
2017-05-09T00:17:19.397Z,9.92
2017-05-09T00:19:48.442Z,6.12
2017-05-09T00:22:16.739Z,6.28
2017-05-09T00:24:45.098Z,4.38
2017-05-09T00:27:13.405Z,8.53
2017-05-09T00:29:42.449Z,5.70
2017-05-09T00:32:10.745Z,5.12
2017-05-09T00:34:39.042Z,7.13
2017-05-09T00:37:07.441Z,5.40
2017-05-09T00:39:35.741Z,5.22
2017-05-09T00:42:04.125Z,4.18
2017-05-09T00:44:33.165Z,9.00
2017-05-09T00:47:01.457Z,5.82
2017-05-09T00:49:29.754Z,7.48
2017-05-09T00:51:58.053Z,4.70
2017-05-09T00:54:26.397Z,5.80
2017-05-09T00:56:54.693Z,5.62
2017-05-09T00:59:23.146Z,4.63
2017-05-09T01:01:51.445Z,3.98
2017-05-09T01:04:19.745Z,8.47
2017-05-09T01:06:48.708Z,6.32
2017-05-09T01:09:17.009Z,4.37
2017-05-09T01:11:45.349Z,5.33
2017-05-09T01:14:13.650Z,6.33
2017-05-09T01:16:41.950Z,4.55
2017-05-09T01:19:10.253Z,5.62
2017-05-09T01:21:38.597Z,4.05
2017-05-09T01:24:07.578Z,6.63
2017-05-09T01:26:36.490Z,3.68
2017-05-09T01:29:04.789Z,4.80
2017-05-09T01:31:33.089Z,4.03
2017-05-09T01:34:01.537Z,4.93
2017-05-09T01:36:29.876Z,7.03
2017-05-09T01:38:58.169Z,7.18
2017-05-09T01:41:26.469Z,5.00
2017-05-09T01:43:54.769Z,4.05
2017-05-09T01:46:23.073Z,4.65
2017-05-09T01:48:51.372Z,5.63
2017-05-09T01:51:19.713Z,6.43
2017-05-09T01:53:48.018Z,5.90
2017-05-09T01:56:18.469Z,5.18
2017-05-09T01:58:47.522Z,4.68
2017-05-09T02:01:15.817Z,3.88
2017-05-09T02:03:44.122Z,5.20
2017-05-09T02:06:12.418Z,6.05
2017-05-09T02:08:42.074Z,6.55
2017-05-09T02:11:10.373Z,5.67
2017-05-09T02:13:38.673Z,3.90
2017-05-09T02:16:07.017Z,5.82
2017-05-09T02:18:35.930Z,7.43
2017-05-09T02:21:04.289Z,4.90
2017-05-09T02:23:32.642Z,4.98
2017-05-09T02:26:00.997Z,3.85
2017-05-09T02:28:29.349Z,3.68
2017-05-09T02:30:57.660Z,4.02
2017-05-09T02:33:26.184Z,5.57
2017-05-09T02:35:54.875Z,5.25
2017-05-09T02:38:23.179Z,6.88
2017-05-09T02:40:51.575Z,5.92
2017-05-09T02:43:19.934Z,5.78
2017-05-09T02:45:48.290Z,4.42
2017-05-09T02:48:16.644Z,5.67
2017-05-09T02:50:44.949Z,4.38
2017-05-09T02:53:13.293Z,5.47
2017-05-09T02:55:41.608Z,4.57
2017-05-09T02:58:09.956Z,4.95
2017-05-09T03:00:38.267Z,7.27
2017-05-09T03:03:06.614Z,5.45
2017-05-09T03:05:35.709Z,4.45
2017-05-09T03:08:04.019Z,5.23
2017-05-09T03:10:34.706Z,4.15
2017-05-09T03:13:03.017Z,4.67
2017-05-09T03:15:31.313Z,4.73
2017-05-09T03:17:59.614Z,3.98
2017-05-09T03:20:27.956Z,5.20
2017-05-09T03:22:56.307Z,7.25
2017-05-09T03:25:24.657Z,4.70
2017-05-09T03:27:53.755Z,5.42
2017-05-09T03:30:22.074Z,5.80
2017-05-09T03:32:50.383Z,4.22
2017-05-09T03:35:19.725Z,4.00
2017-05-09T03:37:48.068Z,4.28
2017-05-09T03:40:16.877Z,6.52
2017-05-09T03:42:45.231Z,5.80
2017-05-09T03:45:13.593Z,7.27
2017-05-09T03:47:41.940Z,7.10
2017-05-09T03:50:10.298Z,5.52
2017-05-09T03:52:39.346Z,4.12
2017-05-09T03:55:07.693Z,7.77
2017-05-09T03:57:36.015Z,4.92
2017-05-09T04:00:05.344Z,5.18
2017-05-09T04:02:34.393Z,5.78
2017-05-09T04:05:02.741Z,7.10
2017-05-09T04:07:31.801Z,7.90
2017-05-09T04:10:00.105Z,5.88
2017-05-09T04:12:28.473Z,6.05
2017-05-09T04:14:56.833Z,4.97
2017-05-09T04:17:25.145Z,4.32
2017-05-09T04:19:53.777Z,5.80
2017-05-09T04:22:22.149Z,4.50
2017-05-09T04:24:50.511Z,4.37
2017-05-09T04:27:18.861Z,4.47
2017-05-09T04:29:47.913Z,4.12
2017-05-09T04:32:16.222Z,4.05
2017-05-09T04:34:44.526Z,4.27
2017-05-09T04:37:13.421Z,3.68
2017-05-09T04:39:41.784Z,3.43
2017-05-09T04:42:10.838Z,4.93
2017-05-09T04:44:39.143Z,3.30
2017-05-09T04:47:07.490Z,5.48
2017-05-09T04:49:36.594Z,4.32
2017-05-09T04:52:04.945Z,4.57
2017-05-09T04:54:33.300Z,7.23
2017-05-09T04:57:02.362Z,4.67
2017-05-09T04:59:31.201Z,3.88
2017-05-09T05:01:59.553Z,4.37
2017-05-09T05:04:27.911Z,3.94
2017-05-09T05:06:56.230Z,9.80
2017-05-09T05:09:24.532Z,4.94
2017-05-09T05:11:53.881Z,4.62
2017-05-09T05:14:22.189Z,3.60
2017-05-09T05:16:50.565Z,5.88
2017-05-09T05:19:18.881Z,6.54
2017-05-09T05:21:47.181Z,3.72
2017-05-09T05:24:15.481Z,5.00
2017-05-09T05:26:43.787Z,4.48
2017-05-09T05:29:12.141Z,4.50
2017-05-09T05:31:41.244Z,5.28
2017-05-09T05:34:09.558Z,5.84
2017-05-09T05:36:38.610Z,5.52
2017-05-09T05:39:07.000Z,4.02
2017-05-09T05:41:35.344Z,3.92
2017-05-09T05:44:03.662Z,4.80
2017-05-09T05:46:31.962Z,6.60
2017-05-09T05:49:00.317Z,4.12
2017-05-09T05:51:29.045Z,5.56
2017-05-09T05:53:57.406Z,6.24
2017-05-09T05:56:25.719Z,4.26
2017-05-09T05:58:54.026Z,4.10
2017-05-09T06:01:22.406Z,3.88
2017-05-09T06:03:50.760Z,5.62
2017-05-09T06:06:19.860Z,4.18
2017-05-09T06:08:48.222Z,4.14
2017-05-09T06:11:16.602Z,4.60
2017-05-09T06:13:45.464Z,5.24
2017-05-09T06:16:13.778Z,6.48
2017-05-09T06:18:42.094Z,4.38
2017-05-09T06:21:11.157Z,5.04
2017-05-09T06:23:39.465Z,4.82
2017-05-09T06:26:07.832Z,5.63
2017-05-09T06:28:36.198Z,4.77
2017-05-09T06:31:05.312Z,7.20
2017-05-09T06:33:34.378Z,4.32
2017-05-09T06:36:02.733Z,7.37
2017-05-09T06:38:31.912Z,4.53
2017-05-09T06:41:00.245Z,4.07
2017-05-09T06:43:29.340Z,3.97
2017-05-09T06:45:57.717Z,3.57
2017-05-09T06:48:26.089Z,4.85
2017-05-09T06:50:54.483Z,3.25
2017-05-09T06:53:22.806Z,4.18
2017-05-09T06:55:51.109Z,3.20
2017-05-09T06:58:19.452Z,4.28
2017-05-09T07:00:47.853Z,3.45
2017-05-09T07:03:16.966Z,5.07
2017-05-09T07:05:45.321Z,4.83
2017-05-09T07:08:13.634Z,4.37
2017-05-09T07:10:42.288Z,4.52
2017-05-09T07:13:11.026Z,6.08
2017-05-09T07:15:39.381Z,3.53
2017-05-09T07:18:08.442Z,3.25
2017-05-09T07:20:36.747Z,7.23
2017-05-09T07:23:05.738Z,3.92
2017-05-09T07:25:34.093Z,3.70
2017-05-09T07:28:02.461Z,3.82
2017-05-09T07:30:30.873Z,3.33
2017-05-09T07:32:59.185Z,3.38
2017-05-09T07:35:28.553Z,6.82
2017-05-09T07:37:56.913Z,7.25
2017-05-09T07:40:25.222Z,4.62
2017-05-09T07:42:53.577Z,4.97
2017-05-09T07:45:21.932Z,5.88
2017-05-09T07:47:51.021Z,6.63
2017-05-09T07:50:19.374Z,4.22
2017-05-09T07:52:47.702Z,4.52
2017-05-09T07:55:16.061Z,4.40
2017-05-09T07:57:44.464Z,4.43
2017-05-09T08:00:12.821Z,3.25
2017-05-09T08:02:41.129Z,3.93
2017-05-09T08:05:09.433Z,3.88
2017-05-09T08:07:37.785Z,3.30
2017-05-09T08:10:06.114Z,6.82
2017-05-09T08:12:34.466Z,4.17
2017-05-09T08:15:03.629Z,3.07
2017-05-09T08:17:31.940Z,4.00
2017-05-09T08:20:00.319Z,3.62
2017-05-09T08:22:28.931Z,3.93
2017-05-09T08:24:57.243Z,3.43
2017-05-09T08:27:25.593Z,5.30
2017-05-09T08:29:53.900Z,2.68
2017-05-09T08:32:22.367Z,4.22
2017-05-09T08:34:50.681Z,4.83
2017-05-09T08:37:19.074Z,3.87
2017-05-09T08:39:47.394Z,5.72
2017-05-09T08:42:15.746Z,4.47
2017-05-09T08:44:44.050Z,5.82
2017-05-09T08:47:13.422Z,6.42
2017-05-09T08:49:41.726Z,4.35
2017-05-09T08:52:10.086Z,3.45
2017-05-09T08:54:38.452Z,5.30
2017-05-09T08:57:07.539Z,3.38
2017-05-09T08:59:36.171Z,4.32
2017-05-09T09:02:04.494Z,4.72
2017-05-09T09:04:33.626Z,4.15
2017-05-09T09:07:02.948Z,6.98
2017-05-09T09:09:31.309Z,4.10
2017-05-09T09:11:59.674Z,4.32
2017-05-09T09:14:27.990Z,3.30
2017-05-09T09:16:56.522Z,6.28
2017-05-09T09:19:25.105Z,6.32
2017-05-09T09:21:53.465Z,5.53
2017-05-09T09:24:21.904Z,5.18
2017-05-09T09:26:50.271Z,3.88
2017-05-09T09:29:18.653Z,4.30
2017-05-09T09:31:47.011Z,3.58
2017-05-09T09:34:15.325Z,3.25
2017-05-09T09:36:44.422Z,5.13
2017-05-09T09:39:12.756Z,4.35
2017-05-09T09:41:42.053Z,4.18
2017-05-09T09:44:11.114Z,5.72
2017-05-09T09:46:39.479Z,4.53
2017-05-09T09:49:08.559Z,5.82
2017-05-09T09:51:36.914Z,4.88
2017-05-09T09:54:05.285Z,4.08
2017-05-09T09:56:34.342Z,4.23
2017-05-09T09:59:02.730Z,4.68
2017-05-09T10:01:31.112Z,4.83
2017-05-09T10:04:00.312Z,6.00
2017-05-09T10:06:28.714Z,5.03
2017-05-09T10:08:57.817Z,4.02
2017-05-09T10:11:26.137Z,3.73
2017-05-09T10:13:55.510Z,6.15
2017-05-09T10:16:24.234Z,5.23
2017-05-09T10:18:52.537Z,3.55
2017-05-09T10:21:20.889Z,4.68
2017-05-09T10:23:49.250Z,3.72
2017-05-09T10:26:18.449Z,3.35
2017-05-09T10:28:46.805Z,4.13
2017-05-09T10:31:15.146Z,4.85
2017-05-09T10:33:43.508Z,5.52
2017-05-09T10:36:11.828Z,3.77
2017-05-09T10:38:40.176Z,8.38
2017-05-09T10:41:10.130Z,3.20
2017-05-09T10:43:38.449Z,5.57
2017-05-09T10:46:06.801Z,3.90
2017-05-09T10:48:39.578Z,5.55
2017-05-09T10:51:07.936Z,3.67
2017-05-09T10:53:36.251Z,4.03
2017-05-09T10:56:04.558Z,4.10
2017-05-09T10:58:32.921Z,6.20
2017-05-09T11:01:01.277Z,3.52
2017-05-09T11:03:29.661Z,4.50
2017-05-09T11:05:58.857Z,3.68
2017-05-09T11:08:27.170Z,4.85
2017-05-09T11:10:55.516Z,5.78
2017-05-09T11:13:24.609Z,3.97
2017-05-09T11:15:52.929Z,4.50
2017-05-09T11:18:21.278Z,4.35
2017-05-09T11:20:49.636Z,4.40
2017-05-09T11:23:18.691Z,4.42
2017-05-09T11:25:47.010Z,4.05
2017-05-09T11:28:15.362Z,4.37
2017-05-09T11:30:43.721Z,4.82
2017-05-09T11:33:12.077Z,3.18
2017-05-09T11:35:40.437Z,3.58
2017-05-09T11:38:09.514Z,4.08
2017-05-09T11:40:38.333Z,3.57
2017-05-09T11:43:09.339Z,3.60
2017-05-09T11:45:38.609Z,4.25
2017-05-09T11:48:06.965Z,5.07
2017-05-09T11:50:35.278Z,5.22
2017-05-09T11:53:03.633Z,5.02
2017-05-09T11:55:32.693Z,4.80
2017-05-09T11:58:01.045Z,6.05
2017-05-09T12:00:31.977Z,6.70
2017-05-09T12:03:00.333Z,4.77
2017-05-09T12:05:28.684Z,5.22
2017-05-09T12:07:56.980Z,4.27
2017-05-09T12:10:25.329Z,4.38
2017-05-09T12:12:53.642Z,4.17
2017-05-09T12:15:21.988Z,4.07
2017-05-09T12:17:50.350Z,3.93
2017-05-09T12:20:18.713Z,4.90
2017-05-09T12:22:47.807Z,3.70
2017-05-09T12:25:16.929Z,3.82
2017-05-09T12:27:45.234Z,4.28
2017-05-09T12:30:14.285Z,3.68
2017-05-09T12:32:42.592Z,6.23
2017-05-09T12:35:10.898Z,3.60
2017-05-09T12:37:39.197Z,3.83
2017-05-09T12:40:07.679Z,4.08
2017-05-09T12:42:36.357Z,3.83
2017-05-09T12:45:05.411Z,4.28
2017-05-09T12:47:33.718Z,5.88
2017-05-09T12:50:02.073Z,5.67
2017-05-09T12:52:31.179Z,6.22
2017-05-09T12:55:00.273Z,4.28
2017-05-09T12:57:28.632Z,6.03
2017-05-09T12:59:56.946Z,3.72
2017-05-09T13:02:25.253Z,3.87
2017-05-09T13:04:53.601Z,4.20
2017-05-09T13:07:21.920Z,5.60
2017-05-09T13:09:50.461Z,6.63
2017-05-09T13:12:18.818Z,7.40
2017-05-09T13:14:47.135Z,7.90
2017-05-09T13:17:15.442Z,6.57
2017-05-09T13:19:44.382Z,6.52
2017-05-09T13:22:12.702Z,6.33
2017-05-09T13:24:41.759Z,6.32
2017-05-09T13:27:10.107Z,7.03
2017-05-09T13:29:38.504Z,6.12
2017-05-09T13:32:07.608Z,6.33
2017-05-09T13:34:35.973Z,11.78
2017-05-09T13:37:04.277Z,5.32
2017-05-09T13:39:32.577Z,6.02
2017-05-09T13:42:02.386Z,7.27
2017-05-09T13:44:31.024Z,6.67
2017-05-09T13:46:59.333Z,6.22
2017-05-09T13:49:27.665Z,7.47
2017-05-09T13:51:56.714Z,7.23
2017-05-09T13:54:25.017Z,7.02
2017-05-09T13:56:53.364Z,6.03
2017-05-09T13:59:22.421Z,8.30
2017-05-09T14:01:50.769Z,8.70
2017-05-09T14:04:19.130Z,7.20
2017-05-09T14:06:47.449Z,9.23
2017-05-09T14:09:15.758Z,5.80
2017-05-09T14:11:44.828Z,5.87
2017-05-09T14:14:13.142Z,6.53
2017-05-09T14:16:41.489Z,6.33
2017-05-09T14:19:10.591Z,6.07
2017-05-09T14:21:39.713Z,6.18
2017-05-09T14:24:08.778Z,7.85
2017-05-09T14:26:37.257Z,18.92
2017-05-09T14:29:06.313Z,11.65
2017-05-09T14:31:34.665Z,8.60
2017-05-09T14:34:03.728Z,13.63
2017-05-09T14:36:32.037Z,9.88
2017-05-09T14:39:00.441Z,8.82
2017-05-09T14:41:28.806Z,9.28
2017-05-09T14:43:57.881Z,8.90
2017-05-09T14:46:26.977Z,8.07
2017-05-09T14:48:55.333Z,8.78
2017-05-09T14:51:23.647Z,7.27
2017-05-09T14:53:51.953Z,10.60
2017-05-09T14:56:20.313Z,7.83
2017-05-09T14:58:48.673Z,7.60
2017-05-09T15:01:16.995Z,9.20
2017-05-09T15:03:46.102Z,7.72
2017-05-09T15:06:15.167Z,8.58
2017-05-09T15:08:43.482Z,10.22
2017-05-09T15:11:11.878Z,13.42
2017-05-09T15:13:40.197Z,8.78
2017-05-09T15:16:08.820Z,8.93
2017-05-09T15:18:37.371Z,9.17
2017-05-09T15:21:05.686Z,9.70
2017-05-09T15:23:34.037Z,8.87
2017-05-09T15:26:03.132Z,9.07
2017-05-09T15:28:32.237Z,9.13
2017-05-09T15:31:00.558Z,10.98
2017-05-09T15:33:31.149Z,8.37
2017-05-09T15:35:59.522Z,8.63
2017-05-09T15:38:27.886Z,8.43
2017-05-09T15:40:56.447Z,9.38
2017-05-09T15:43:24.810Z,8.28
2017-05-09T15:45:53.957Z,9.32
2017-05-09T15:48:22.345Z,8.67
2017-05-09T15:50:50.846Z,9.95
2017-05-09T15:53:19.170Z,10.27
2017-05-09T15:55:47.471Z,8.92
2017-05-09T15:58:15.842Z,8.72
2017-05-09T16:00:44.162Z,9.93
2017-05-09T16:03:12.702Z,9.50
2017-05-09T16:05:41.009Z,8.60
2017-05-09T16:08:09.698Z,8.18
2017-05-09T16:10:38.084Z,8.70
2017-05-09T16:13:06.487Z,8.78
2017-05-09T16:15:34.809Z,8.43
2017-05-09T16:18:03.109Z,8.53
2017-05-09T16:20:31.609Z,8.80
2017-05-09T16:22:59.983Z,10.83
2017-05-09T16:25:28.315Z,9.85
2017-05-09T16:27:56.665Z,9.80
2017-05-09T16:30:25.049Z,9.37
2017-05-09T16:32:53.417Z,9.48
2017-05-09T16:35:21.736Z,9.62
2017-05-09T16:37:51.153Z,10.03
2017-05-09T16:40:20.248Z,9.13
2017-05-09T16:42:48.858Z,13.63
2017-05-09T16:45:17.205Z,8.80
2017-05-09T16:47:45.558Z,8.68
2017-05-09T16:50:14.017Z,10.32
2017-05-09T16:52:42.382Z,8.85
2017-05-09T16:55:11.029Z,8.50
2017-05-09T16:57:40.009Z,9.17
2017-05-09T17:00:08.361Z,8.28
2017-05-09T17:02:36.743Z,8.20
2017-05-09T17:05:05.113Z,10.47
2017-05-09T17:07:33.435Z,9.45
2017-05-09T17:10:01.797Z,8.00
2017-05-09T17:12:31.015Z,8.75
2017-05-09T17:15:00.115Z,8.57
2017-05-09T17:17:29.367Z,8.73
2017-05-09T17:20:00.318Z,8.20
2017-05-09T17:22:28.639Z,8.22
2017-05-09T17:24:57.047Z,8.65
2017-05-09T17:27:25.398Z,9.07
2017-05-09T17:29:54.497Z,7.47
2017-05-09T17:32:22.823Z,8.45
2017-05-09T17:34:51.926Z,8.72
2017-05-09T17:37:20.978Z,9.02
2017-05-09T17:39:51.494Z,9.25
2017-05-09T17:42:20.597Z,9.13
2017-05-09T17:44:49.701Z,7.72
2017-05-09T17:47:18.014Z,8.58
2017-05-09T17:49:47.108Z,8.17
2017-05-09T17:52:15.572Z,7.98
2017-05-09T17:54:43.928Z,10.28
2017-05-09T17:57:12.990Z,10.93
2017-05-09T17:59:41.341Z,8.83
2017-05-09T18:02:12.221Z,8.33
2017-05-09T18:04:40.528Z,8.87
2017-05-09T18:07:08.885Z,7.52
2017-05-09T18:09:37.686Z,8.07
2017-05-09T18:12:06.037Z,8.53
2017-05-09T18:14:34.355Z,7.95
2017-05-09T18:17:02.664Z,7.47
2017-05-09T18:19:31.422Z,9.53
2017-05-09T18:22:00.538Z,8.85
2017-05-09T18:24:28.907Z,8.78
2017-05-09T18:26:57.455Z,8.12
2017-05-09T18:29:25.776Z,8.38
2017-05-09T18:31:54.705Z,7.80
2017-05-09T18:34:24.826Z,7.30
2017-05-09T18:36:53.145Z,10.02
2017-05-09T18:39:21.487Z,8.23
2017-05-09T18:41:50.591Z,9.22
2017-05-09T18:44:19.869Z,8.05
2017-05-09T18:46:48.181Z,8.87
2017-05-09T18:49:16.549Z,7.98
2017-05-09T18:51:44.856Z,8.03
2017-05-09T18:54:13.216Z,8.60
2017-05-09T18:56:42.270Z,8.12
2017-05-09T18:59:11.065Z,7.78
2017-05-09T19:01:39.435Z,8.28
2017-05-09T19:04:08.529Z,7.22
2017-05-09T19:06:36.901Z,7.00
2017-05-09T19:09:05.269Z,8.05
2017-05-09T19:11:33.968Z,8.43
2017-05-09T19:14:02.325Z,8.88
2017-05-09T19:16:30.690Z,8.33
2017-05-09T19:18:59.002Z,7.08
2017-05-09T19:21:27.782Z,6.97
2017-05-09T19:23:56.086Z,9.52
2017-05-09T19:26:24.438Z,8.53
2017-05-09T19:28:52.762Z,7.20
2017-05-09T19:31:21.810Z,10.65
2017-05-09T19:33:50.348Z,10.90
2017-05-09T19:36:19.431Z,7.12
2017-05-09T19:38:47.738Z,8.42
2017-05-09T19:41:16.085Z,9.20
2017-05-09T19:43:45.281Z,7.35
2017-05-09T19:46:13.645Z,6.93
2017-05-09T19:48:42.005Z,9.65
2017-05-09T19:51:11.712Z,7.18
2017-05-09T19:53:40.041Z,7.97
2017-05-09T19:56:08.365Z,10.67
2017-05-09T19:58:36.670Z,8.05
2017-05-09T20:01:04.981Z,8.12
2017-05-09T20:03:33.292Z,7.32
2017-05-09T20:06:01.601Z,11.38
2017-05-09T20:08:29.953Z,12.48
2017-05-09T20:10:58.266Z,10.48
2017-05-09T20:13:26.653Z,9.27
2017-05-09T20:15:54.968Z,16.73
2017-05-09T20:18:23.282Z,13.10
2017-05-09T20:20:51.693Z,10.83
2017-05-09T20:23:20.001Z,13.37
2017-05-09T20:25:48.353Z,12.83
2017-05-09T20:28:16.665Z,9.40
2017-05-09T20:30:46.325Z,8.88
2017-05-09T20:33:14.678Z,10.42
2017-05-09T20:35:42.984Z,8.35
2017-05-09T20:38:11.337Z,7.35
2017-05-09T20:40:40.433Z,8.63
2017-05-09T20:43:09.029Z,8.50
2017-05-09T20:45:37.336Z,9.38
2017-05-09T20:48:06.029Z,8.45
2017-05-09T20:50:34.342Z,9.40
2017-05-09T20:53:02.646Z,9.15
2017-05-09T20:55:30.993Z,9.63
2017-05-09T20:57:59.345Z,9.12
2017-05-09T21:00:27.699Z,9.75
2017-05-09T21:02:56.002Z,9.38
2017-05-09T21:05:24.345Z,9.42
2017-05-09T21:07:52.688Z,9.60
2017-05-09T21:10:20.998Z,7.85
2017-05-09T21:12:49.637Z,10.00
2017-05-09T21:15:17.942Z,8.35
2017-05-09T21:17:46.593Z,7.77
2017-05-09T21:20:14.945Z,9.00
2017-05-09T21:22:43.302Z,8.20
2017-05-09T21:25:11.654Z,9.02
2017-05-09T21:27:40.710Z,10.05
2017-05-09T21:30:09.015Z,10.08
2017-05-09T21:32:37.361Z,9.05
2017-05-09T21:35:06.122Z,9.15
2017-05-09T21:37:34.472Z,9.80
2017-05-09T21:40:03.521Z,9.42
2017-05-09T21:42:31.821Z,9.57
2017-05-09T21:45:00.469Z,9.38
2017-05-09T21:47:28.781Z,10.30
2017-05-09T21:49:57.128Z,9.25
2017-05-09T21:52:25.481Z,9.72
2017-05-09T21:54:53.839Z,11.77
2017-05-09T21:57:22.228Z,9.02
2017-05-09T21:59:50.593Z,9.58
2017-05-09T22:02:19.689Z,11.38
2017-05-09T22:04:48.006Z,9.67
2017-05-09T22:07:17.540Z,11.08
2017-05-09T22:09:46.642Z,9.48
2017-05-09T22:12:15.737Z,9.90
2017-05-09T22:14:44.861Z,10.53
2017-05-09T22:17:13.216Z,9.98
2017-05-09T22:19:41.568Z,9.33
2017-05-09T22:22:10.669Z,8.95
2017-05-09T22:24:39.021Z,9.60
2017-05-09T22:27:07.377Z,8.90
2017-05-09T22:29:35.689Z,9.58
2017-05-09T22:32:09.169Z,9.20
2017-05-09T22:34:37.470Z,9.52
2017-05-09T22:37:05.821Z,10.00
2017-05-09T22:39:34.174Z,12.90
2017-05-09T22:42:02.530Z,9.90
2017-05-09T22:44:31.078Z,11.25
2017-05-09T22:46:59.441Z,9.32
2017-05-09T22:49:27.789Z,11.52
2017-05-09T22:51:56.141Z,9.25
2017-05-09T22:54:24.821Z,10.92
2017-05-09T22:56:53.909Z,10.58
2017-05-09T22:59:22.225Z,9.72
2017-05-09T23:01:51.274Z,11.87
2017-05-09T23:04:19.620Z,10.72
2017-05-09T23:06:48.247Z,9.73
2017-05-09T23:09:17.337Z,10.38
2017-05-09T23:11:45.689Z,9.33
2017-05-09T23:14:14.001Z,9.07
2017-05-09T23:16:42.305Z,10.50
2017-05-09T23:19:10.646Z,9.72
2017-05-09T23:21:38.997Z,9.52
2017-05-09T23:24:07.309Z,13.98
2017-05-09T23:26:35.657Z,10.47
2017-05-09T23:29:04.758Z,10.70
2017-05-09T23:31:33.810Z,9.60
2017-05-09T23:34:02.109Z,11.90
2017-05-09T23:36:30.414Z,11.00
2017-05-09T23:39:02.982Z,10.23
2017-05-09T23:41:31.342Z,11.58
2017-05-09T23:43:59.650Z,8.78
2017-05-09T23:46:28.858Z,11.48
2017-05-09T23:48:57.217Z,13.00
2017-05-09T23:51:25.855Z,12.47
2017-05-09T23:53:54.205Z,10.05
2017-05-09T23:56:22.564Z,9.85
2017-05-09T23:58:50.925Z,11.32
